Time;durP1;ratioP1;P1;durP2;ratioP2;P2;SDS_P1;SDS_P2;PMS_P1;PMS_P2;Temp;Humidity;BMP_temperature;BMP_pressure;BME280_temperature;BME280_humidity;BME280_pressure;Samples;Min_cycle;Max_cycle;Signal;HPM_P1;HPM_P2
2022/02/01 00:00:16;;;;;;;;;;;21.60;38.40;;;;;;683369;29;637;-82
2022/02/01 00:00:56;;;;;;;;;;;21.60;38.30;;;;;;683310;29;862;-82
2022/02/01 00:01:29;;;;;;;;;;;21.70;39.30;;;;;;683223;29;917;-83
2022/02/01 00:02:04;;;;;;;;;;;21.60;38.20;;;;;;682465;29;1291;-80
2022/02/01 00:02:38;;;;;;;;;;;21.60;39.50;;;;;;680578;29;851;-80
2022/02/01 00:03:01;;;;;;;;;;;21.60;38.40;;;;;;681478;29;1405;-79
2022/02/01 00:03:24;;;;;;;;;;;21.60;38.30;;;;;;685065;28;1001;-78
2022/02/01 00:03:48;;;;;;;;;;;21.60;38.30;;;;;;685867;28;835;-82
2022/02/01 00:04:17;;;;;;;;;;;21.60;38.40;;;;;;686010;28;1330;-84
2022/02/01 00:05:12;;;;;;;;;;;21.60;39.00;;;;;;685824;28;823;-80
2022/02/01 00:05:39;;;;;;;;;;;21.60;39.20;;;;;;685979;28;843;-83
2022/02/01 00:06:39;;;;;;;;;;;21.60;39.40;;;;;;685928;28;846;-83
2022/02/01 00:07:24;;;;;;;;;;;21.70;39.50;;;;;;685742;28;1342;-81
2022/02/01 00:08:06;;;;;;;;;;;21.70;39.60;;;;;;683877;28;1387;-82
2022/02/01 00:09:28;;;;;;;;;;;21.70;39.50;;;;;;683312;29;744;-82
2022/02/01 00:10:22;;;;;;;;;;;21.70;39.50;;;;;;683275;29;632;-85
2022/02/01 00:11:32;;;;;;;;;;;21.80;39.50;;;;;;683240;29;1305;-83
2022/02/01 00:16:04;;;;;;;;;;;21.80;44.20;;;;;;679501;29;622;-84
2022/02/01 00:16:44;;;;;;;;;;;21.80;46.60;;;;;;679069;29;1566;-85
2022/02/01 00:19:23;;;;;;;;;;;21.90;56.20;;;;;;679802;29;717;-84
2022/02/01 00:34:37;;;;;;;;;;;22.20;67.10;;;;;;664990;29;808;-85
2022/02/01 00:36:34;;;;;;;;;;;22.20;65.20;;;;;;665036;29;1005;-82
2022/02/01 00:36:53;;;;;;;;;;;22.30;65.50;;;;;;664857;29;1687;-84
2022/02/01 00:37:19;;;;;;;;;;;22.20;66.90;;;;;;665039;29;868;-87
2022/02/01 00:37:53;;;;;;;;;;;22.20;70.40;;;;;;665201;29;834;-86
2022/02/01 00:38:23;;;;;;;;;;;22.30;71.80;;;;;;665091;29;848;-86
2022/02/01 00:38:58;;;;;;;;;;;22.30;72.80;;;;;;665118;29;844;-86
2022/02/01 00:39:28;;;;;;;;;;;22.30;72.20;;;;;;665063;29;820;-84
2022/02/01 00:39:55;;;;;;;;;;;22.30;71.90;;;;;;665086;29;1048;-86
2022/02/01 00:40:16;;;;;;;;;;;22.30;70.70;;;;;;665130;29;871;-86
2022/02/01 00:40:40;;;;;;;;;;;22.30;70.00;;;;;;665144;29;836;-86
2022/02/01 00:41:04;;;;;;;;;;;22.30;69.20;;;;;;665111;29;896;-84
2022/02/01 00:41:32;;;;;;;;;;;22.30;68.70;;;;;;665033;29;1135;-86
2022/02/01 00:41:53;;;;;;;;;;;22.20;67.90;;;;;;665075;29;992;-83
2022/02/01 00:42:17;;;;;;;;;;;22.20;67.20;;;;;;665022;29;816;-85
2022/02/01 00:42:37;;;;;;;;;;;22.20;66.60;;;;;;665097;29;1158;-80
2022/02/01 00:42:58;;;;;;;;;;;22.20;66.10;;;;;;664644;29;1344;-83
2022/02/01 00:43:18;;;;;;;;;;;22.20;65.50;;;;;;665079;29;805;-85
2022/02/01 00:43:39;;;;;;;;;;;22.20;65.00;;;;;;664979;29;1645;-85
2022/02/01 00:44:01;;;;;;;;;;;22.20;64.70;;;;;;665136;29;789;-84
2022/02/01 00:44:21;;;;;;;;;;;22.20;64.20;;;;;;664901;29;1371;-81
2022/02/01 00:44:42;;;;;;;;;;;22.20;63.50;;;;;;665135;29;1421;-88
2022/02/01 00:45:03;;;;;;;;;;;22.10;63.40;;;;;;665189;29;1325;-92
2022/02/01 00:45:23;;;;;;;;;;;22.10;63.00;;;;;;665193;29;944;-86
2022/02/01 00:45:44;;;;;;;;;;;22.10;62.70;;;;;;664590;29;1525;-86
2022/02/01 00:46:05;;;;;;;;;;;22.10;62.20;;;;;;665084;29;1593;-86
2022/02/01 00:46:25;;;;;;;;;;;22.10;61.90;;;;;;664956;29;1533;-84
2022/02/01 00:46:46;;;;;;;;;;;22.10;61.50;;;;;;665143;29;852;-86
2022/02/01 00:47:07;;;;;;;;;;;22.10;61.20;;;;;;665318;29;930;-86
2022/02/01 00:47:28;;;;;;;;;;;22.10;61.10;;;;;;665034;29;884;-84
2022/02/01 00:47:49;;;;;;;;;;;22.10;60.80;;;;;;664827;29;1297;-84
2022/02/01 00:48:09;;;;;;;;;;;22.10;60.70;;;;;;665250;29;895;-83
2022/02/01 00:48:30;;;;;;;;;;;22.10;60.10;;;;;;663158;29;1115;-85
2022/02/01 00:48:51;;;;;;;;;;;22.10;59.80;;;;;;662598;29;805;-85
2022/02/01 00:49:11;;;;;;;;;;;22.00;60.40;;;;;;662860;29;856;-80
2022/02/01 00:49:34;;;;;;;;;;;22.00;60.30;;;;;;662729;29;798;-85
2022/02/01 00:49:54;;;;;;;;;;;22.00;59.50;;;;;;662114;29;1949;-87
2022/02/01 00:50:16;;;;;;;;;;;22.00;59.20;;;;;;662658;29;1640;-86
2022/02/01 00:50:36;;;;;;;;;;;22.00;59.20;;;;;;662896;29;786;-85
2022/02/01 00:50:58;;;;;;;;;;;22.00;58.70;;;;;;662599;29;848;-86
2022/02/01 00:51:19;;;;;;;;;;;22.00;58.20;;;;;;662072;29;1549;-85
2022/02/01 00:51:39;;;;;;;;;;;22.00;58.50;;;;;;662513;29;1526;-83
2022/02/01 00:52:00;;;;;;;;;;;22.00;58.90;;;;;;662507;29;1442;-82
2022/02/01 00:52:21;;;;;;;;;;;22.00;58.30;;;;;;662460;29;1446;-84
2022/02/01 00:52:42;;;;;;;;;;;22.00;58.50;;;;;;662551;29;1305;-80
2022/02/01 00:53:02;;;;;;;;;;;22.00;58.50;;;;;;662589;29;607;-86
2022/02/01 00:53:27;;;;;;;;;;;21.90;58.40;;;;;;662821;29;861;-85
2022/02/01 00:53:48;;;;;;;;;;;21.90;57.80;;;;;;662378;29;1284;-86
2022/02/01 00:54:09;;;;;;;;;;;21.90;57.40;;;;;;662569;29;1374;-86
2022/02/01 00:54:29;;;;;;;;;;;21.90;57.30;;;;;;662608;29;774;-86
2022/02/01 00:54:50;;;;;;;;;;;21.90;57.00;;;;;;662624;29;817;-85
2022/02/01 00:55:11;;;;;;;;;;;21.90;57.00;;;;;;662696;29;790;-79
2022/02/01 00:55:32;;;;;;;;;;;21.90;56.80;;;;;;662668;29;1113;-82
2022/02/01 00:55:56;;;;;;;;;;;21.90;57.00;;;;;;662563;29;844;-85
2022/02/01 00:56:18;;;;;;;;;;;21.90;56.60;;;;;;662602;29;877;-84
2022/02/01 00:56:38;;;;;;;;;;;21.90;56.80;;;;;;662648;29;848;-85
2022/02/01 00:56:59;;;;;;;;;;;21.90;56.70;;;;;;662489;29;852;-81
2022/02/01 00:57:19;;;;;;;;;;;21.90;56.80;;;;;;662490;29;1339;-81
2022/02/01 00:57:40;;;;;;;;;;;21.90;56.50;;;;;;662610;29;928;-81
2022/02/01 00:58:01;;;;;;;;;;;21.90;56.60;;;;;;662748;29;1252;-82
2022/02/01 00:58:22;;;;;;;;;;;21.80;56.70;;;;;;659937;29;1366;-79
2022/02/01 00:58:42;;;;;;;;;;;21.80;56.60;;;;;;660052;30;825;-82
2022/02/01 00:59:03;;;;;;;;;;;21.80;56.40;;;;;;660153;30;994;-82
2022/02/01 00:59:24;;;;;;;;;;;21.80;55.80;;;;;;665053;29;895;-84
2022/02/01 00:59:44;;;;;;;;;;;21.80;55.70;;;;;;664894;29;1062;-83
2022/02/01 01:00:06;;;;;;;;;;;21.80;55.50;;;;;;668195;29;923;-81
2022/02/01 01:00:27;;;;;;;;;;;21.80;55.50;;;;;;667174;29;1392;-83
2022/02/01 01:00:48;;;;;;;;;;;21.80;55.80;;;;;;677513;29;1007;-85
2022/02/01 01:01:08;;;;;;;;;;;21.80;55.80;;;;;;677713;29;1282;-85
2022/02/01 01:01:29;;;;;;;;;;;21.80;56.20;;;;;;674847;29;1462;-86
2022/02/01 01:01:49;;;;;;;;;;;21.80;55.90;;;;;;677458;28;949;-84
2022/02/01 01:02:10;;;;;;;;;;;21.80;55.90;;;;;;686235;28;807;-83
2022/02/01 01:02:31;;;;;;;;;;;21.80;55.70;;;;;;688434;28;803;-83
2022/02/01 01:02:51;;;;;;;;;;;21.80;55.50;;;;;;688459;28;883;-79
2022/02/01 01:03:12;;;;;;;;;;;21.70;55.50;;;;;;688830;28;938;-80
2022/02/01 01:03:32;;;;;;;;;;;21.70;55.10;;;;;;691419;28;818;-85
2022/02/01 01:03:53;;;;;;;;;;;21.80;55.00;;;;;;691400;28;850;-84
2022/02/01 01:04:13;;;;;;;;;;;21.70;54.60;;;;;;691341;28;803;-85
2022/02/01 01:04:34;;;;;;;;;;;21.70;54.60;;;;;;691398;28;1327;-83
2022/02/01 01:04:54;;;;;;;;;;;21.70;54.30;;;;;;691409;28;803;-85
2022/02/01 01:05:15;;;;;;;;;;;21.70;54.40;;;;;;691453;28;890;-85
2022/02/01 01:05:35;;;;;;;;;;;21.70;54.30;;;;;;691474;28;894;-86
2022/02/01 01:05:56;;;;;;;;;;;21.70;54.40;;;;;;688675;28;878;-85
2022/02/01 01:06:17;;;;;;;;;;;21.70;54.20;;;;;;688437;28;882;-84
2022/02/01 01:06:38;;;;;;;;;;;21.70;53.90;;;;;;688595;28;772;-84
2022/02/01 01:06:58;;;;;;;;;;;21.70;54.00;;;;;;688469;28;890;-85
2022/02/01 01:07:19;;;;;;;;;;;21.70;53.90;;;;;;688539;28;807;-86
2022/02/01 01:07:39;;;;;;;;;;;21.70;54.20;;;;;;688890;28;873;-85
2022/02/01 01:08:00;;;;;;;;;;;21.70;54.30;;;;;;688653;28;1003;-84
2022/02/01 01:08:20;;;;;;;;;;;21.70;54.10;;;;;;688495;28;803;-82
2022/02/01 01:08:44;;;;;;;;;;;21.70;54.10;;;;;;688512;28;763;-83
2022/02/01 01:09:04;;;;;;;;;;;21.70;53.80;;;;;;688478;28;791;-81
2022/02/01 01:09:25;;;;;;;;;;;21.70;53.80;;;;;;686604;28;1336;-83
2022/02/01 01:09:46;;;;;;;;;;;21.70;53.60;;;;;;689027;28;1902;-85
2022/02/01 01:10:09;;;;;;;;;;;21.70;53.10;;;;;;691182;28;798;-85
2022/02/01 01:10:29;;;;;;;;;;;21.70;52.90;;;;;;691604;28;1257;-84
2022/02/01 01:10:50;;;;;;;;;;;21.70;54.10;;;;;;693037;28;1206;-83
2022/02/01 01:11:11;;;;;;;;;;;21.70;54.00;;;;;;691966;28;1036;-84
2022/02/01 01:11:32;;;;;;;;;;;21.70;53.60;;;;;;694018;28;1204;-83
2022/02/01 01:11:55;;;;;;;;;;;21.60;53.30;;;;;;694085;28;803;-80
2022/02/01 01:12:17;;;;;;;;;;;21.60;53.70;;;;;;691021;28;1184;-83
2022/02/01 01:12:48;;;;;;;;;;;21.60;53.10;;;;;;691327;28;861;-83
2022/02/01 01:13:29;;;;;;;;;;;21.70;52.80;;;;;;691259;28;834;-84
2022/02/01 01:15:23;;;;;;;;;;;21.60;52.40;;;;;;694027;28;857;-84
2022/02/01 01:43:35;;;;;;;;;;;21.50;48.30;;;;;;682885;29;1491;-85
2022/02/01 01:43:56;;;;;;;;;;;21.40;48.10;;;;;;683104;29;1195;-83
2022/02/01 01:44:44;;;;;;;;;;;21.50;48.80;;;;;;683077;29;879;-83
2022/02/01 01:45:06;;;;;;;;;;;21.50;49.00;;;;;;682391;29;1954;-82
2022/02/01 01:45:36;;;;;;;;;;;21.50;49.50;;;;;;684410;29;893;-82
2022/02/01 01:52:47;;;;;;;;;;;21.60;49.50;;;;;;684271;29;774;-83
2022/02/01 01:53:13;;;;;;;;;;;21.70;48.60;;;;;;683723;29;622;-82
2022/02/01 01:53:33;;;;;;;;;;;21.70;48.50;;;;;;685376;29;815;-82
2022/02/01 01:53:55;;;;;;;;;;;21.70;48.40;;;;;;685203;29;883;-81
2022/02/01 01:54:15;;;;;;;;;;;21.70;48.30;;;;;;685075;29;953;-83
2022/02/01 01:54:36;;;;;;;;;;;21.70;48.30;;;;;;684915;28;977;-82
2022/02/01 01:54:56;;;;;;;;;;;21.70;48.30;;;;;;690225;28;874;-83
2022/02/01 01:55:17;;;;;;;;;;;21.70;48.20;;;;;;690173;28;1040;-84
2022/02/01 01:55:39;;;;;;;;;;;21.70;48.20;;;;;;690269;28;842;-83
2022/02/01 01:56:01;;;;;;;;;;;21.70;48.20;;;;;;689829;28;1353;-83
2022/02/01 01:56:21;;;;;;;;;;;21.70;48.10;;;;;;686956;28;1753;-80
2022/02/01 01:56:42;;;;;;;;;;;21.70;48.10;;;;;;686703;28;1128;-81
2022/02/01 01:57:03;;;;;;;;;;;21.70;48.00;;;;;;686477;28;1297;-83
2022/02/01 01:57:23;;;;;;;;;;;21.70;48.00;;;;;;686911;28;1056;-84
2022/02/01 01:57:44;;;;;;;;;;;21.70;48.10;;;;;;686410;28;795;-83
2022/02/01 01:58:05;;;;;;;;;;;21.70;47.90;;;;;;686374;28;851;-84
2022/02/01 01:58:26;;;;;;;;;;;21.70;48.00;;;;;;688345;28;540;-83
2022/02/01 01:58:46;;;;;;;;;;;21.70;47.90;;;;;;688368;28;810;-84
2022/02/01 01:59:08;;;;;;;;;;;21.70;47.90;;;;;;688375;28;795;-83
2022/02/01 01:59:29;;;;;;;;;;;21.70;47.90;;;;;;688248;28;889;-83
2022/02/01 01:59:50;;;;;;;;;;;21.70;47.80;;;;;;688339;28;902;-84
2022/02/01 02:00:54;;;;;;;;;;;21.70;47.80;;;;;;688424;28;834;-83
2022/02/01 02:01:14;;;;;;;;;;;21.70;47.70;;;;;;688750;28;834;-79
2022/02/01 02:01:35;;;;;;;;;;;21.80;47.70;;;;;;688369;28;799;-83
2022/02/01 02:01:56;;;;;;;;;;;21.70;47.60;;;;;;688312;28;866;-83
2022/02/01 02:02:16;;;;;;;;;;;21.70;47.60;;;;;;688411;28;855;-83
2022/02/01 02:02:37;;;;;;;;;;;21.80;47.50;;;;;;688381;28;838;-83
2022/02/01 02:02:57;;;;;;;;;;;21.80;47.50;;;;;;685381;28;1357;-83
2022/02/01 02:03:18;;;;;;;;;;;21.80;48.60;;;;;;685514;28;1007;-84
2022/02/01 02:03:40;;;;;;;;;;;21.80;47.60;;;;;;685703;28;858;-82
2022/02/01 02:04:02;;;;;;;;;;;21.80;47.50;;;;;;685630;28;771;-83
2022/02/01 02:04:23;;;;;;;;;;;21.80;47.40;;;;;;685570;28;854;-83
2022/02/01 02:04:43;;;;;;;;;;;21.80;47.40;;;;;;686265;28;787;-83
2022/02/01 02:05:04;;;;;;;;;;;21.80;47.40;;;;;;688424;28;881;-82
2022/02/01 02:05:25;;;;;;;;;;;21.80;47.40;;;;;;688231;28;1268;-83
2022/02/01 02:05:45;;;;;;;;;;;21.80;47.40;;;;;;688230;28;878;-83
2022/02/01 02:06:06;;;;;;;;;;;21.80;47.30;;;;;;688431;28;535;-83
2022/02/01 02:06:26;;;;;;;;;;;21.80;47.30;;;;;;688199;28;902;-84
2022/02/01 02:06:47;;;;;;;;;;;21.80;47.30;;;;;;688458;28;786;-83
2022/02/01 02:07:07;;;;;;;;;;;21.80;47.30;;;;;;685522;28;1208;-83
2022/02/01 02:07:29;;;;;;;;;;;21.80;47.30;;;;;;685541;28;834;-84
2022/02/01 02:07:51;;;;;;;;;;;21.80;47.20;;;;;;685566;28;823;-84
2022/02/01 02:08:12;;;;;;;;;;;21.80;47.10;;;;;;685683;28;826;-79
2022/02/01 02:08:33;;;;;;;;;;;21.80;47.30;;;;;;685673;28;835;-84
2022/02/01 02:08:55;;;;;;;;;;;21.80;47.20;;;;;;686205;28;826;-84
2022/02/01 02:09:16;;;;;;;;;;;21.80;47.10;;;;;;688381;28;843;-82
2022/02/01 02:09:36;;;;;;;;;;;21.80;47.20;;;;;;688303;28;978;-83
2022/02/01 02:09:57;;;;;;;;;;;21.80;47.10;;;;;;688230;28;1911;-83
2022/02/01 02:10:21;;;;;;;;;;;21.80;47.00;;;;;;688245;28;807;-83
2022/02/01 02:11:19;;;;;;;;;;;21.80;47.00;;;;;;688405;28;779;-79
2022/02/01 02:11:53;;;;;;;;;;;21.80;47.00;;;;;;687938;28;1396;-84
2022/02/01 02:12:30;;;;;;;;;;;21.80;46.90;;;;;;687914;28;1297;-83
2022/02/01 02:14:32;;;;;;;;;;;21.80;46.80;;;;;;688296;28;701;-83
2022/02/01 02:14:53;;;;;;;;;;;21.80;46.90;;;;;;688238;28;815;-82
2022/02/01 02:15:13;;;;;;;;;;;21.80;46.60;;;;;;685767;28;949;-83
2022/02/01 02:15:48;;;;;;;;;;;21.80;46.50;;;;;;685727;28;879;-83
2022/02/01 02:16:08;;;;;;;;;;;21.80;46.50;;;;;;687299;28;1041;-84
2022/02/01 02:16:29;;;;;;;;;;;21.80;46.50;;;;;;688319;28;775;-83
2022/02/01 02:16:57;;;;;;;;;;;21.70;46.40;;;;;;688394;28;953;-83
2022/02/01 02:17:17;;;;;;;;;;;21.70;46.50;;;;;;691453;28;767;-83
2022/02/01 02:17:38;;;;;;;;;;;21.70;46.50;;;;;;691264;28;838;-84
2022/02/01 02:18:01;;;;;;;;;;;21.70;46.50;;;;;;691223;28;858;-84
2022/02/01 02:18:22;;;;;;;;;;;21.70;46.50;;;;;;691321;28;807;-82
2022/02/01 02:18:43;;;;;;;;;;;21.70;46.50;;;;;;691257;28;771;-81
2022/02/01 02:19:04;;;;;;;;;;;21.70;46.50;;;;;;691316;28;803;-83
2022/02/01 02:19:26;;;;;;;;;;;21.70;46.50;;;;;;691148;28;1319;-83
2022/02/01 02:19:46;;;;;;;;;;;21.70;46.50;;;;;;688367;28;1160;-81
2022/02/01 02:20:07;;;;;;;;;;;21.70;46.60;;;;;;688399;28;1373;-84
2022/02/01 02:20:40;;;;;;;;;;;21.70;47.60;;;;;;688340;28;949;-83
2022/02/01 02:21:02;;;;;;;;;;;21.70;46.50;;;;;;688366;28;909;-82
2022/02/01 02:21:23;;;;;;;;;;;21.70;46.50;;;;;;688281;28;965;-83
2022/02/01 02:21:45;;;;;;;;;;;21.70;46.60;;;;;;693094;28;1160;-83
2022/02/01 02:22:07;;;;;;;;;;;21.70;46.50;;;;;;693731;28;1409;-83
2022/02/01 02:22:27;;;;;;;;;;;21.60;46.50;;;;;;693752;28;886;-82
2022/02/01 02:22:48;;;;;;;;;;;21.70;46.50;;;;;;693974;28;835;-83
2022/02/01 02:23:09;;;;;;;;;;;21.60;46.40;;;;;;693933;28;846;-84
2022/02/01 02:23:29;;;;;;;;;;;21.70;46.60;;;;;;693223;28;810;-83
2022/02/01 02:23:50;;;;;;;;;;;21.60;46.50;;;;;;691130;28;814;-82
2022/02/01 02:24:11;;;;;;;;;;;21.60;46.40;;;;;;691480;28;1448;-83
2022/02/01 02:24:36;;;;;;;;;;;21.60;46.40;;;;;;691421;28;885;-81
2022/02/01 02:24:56;;;;;;;;;;;21.60;46.50;;;;;;691196;28;958;-83
2022/02/01 02:25:17;;;;;;;;;;;21.60;46.40;;;;;;691347;28;779;-82
2022/02/01 02:25:38;;;;;;;;;;;21.60;46.40;;;;;;691371;28;894;-83
2022/02/01 02:26:01;;;;;;;;;;;21.60;46.40;;;;;;688251;28;898;-82
2022/02/01 02:26:22;;;;;;;;;;;21.60;46.50;;;;;;688393;28;866;-81
2022/02/01 02:26:43;;;;;;;;;;;21.60;47.50;;;;;;688430;28;788;-83
2022/02/01 02:27:04;;;;;;;;;;;21.60;46.30;;;;;;688524;28;807;-82
2022/02/01 02:27:25;;;;;;;;;;;21.60;46.20;;;;;;688247;28;1164;-83
2022/02/01 02:27:45;;;;;;;;;;;21.60;47.10;;;;;;689224;28;838;-82
2022/02/01 02:28:08;;;;;;;;;;;21.60;46.10;;;;;;688427;28;906;-83
2022/02/01 02:28:28;;;;;;;;;;;21.60;46.10;;;;;;688177;28;974;-82
2022/02/01 02:28:49;;;;;;;;;;;21.60;46.30;;;;;;688306;28;783;-83
2022/02/01 02:29:10;;;;;;;;;;;21.60;46.20;;;;;;688478;28;839;-83
2022/02/01 02:29:31;;;;;;;;;;;21.60;46.00;;;;;;688366;28;819;-81
2022/02/01 02:29:52;;;;;;;;;;;21.60;46.20;;;;;;688943;28;1982;-83
2022/02/01 02:30:12;;;;;;;;;;;21.60;46.30;;;;;;691196;28;886;-80
2022/02/01 02:30:33;;;;;;;;;;;21.60;46.10;;;;;;691335;28;799;-80
2022/02/01 02:30:54;;;;;;;;;;;21.50;46.10;;;;;;691156;28;799;-83
2022/02/01 02:31:15;;;;;;;;;;;21.50;46.00;;;;;;691210;28;827;-81
2022/02/01 02:31:38;;;;;;;;;;;21.60;46.10;;;;;;691402;28;775;-80
2022/02/01 02:31:59;;;;;;;;;;;21.50;46.00;;;;;;691177;28;1321;-81
2022/02/01 02:32:20;;;;;;;;;;;21.50;46.00;;;;;;691177;28;827;-81
2022/02/01 02:32:41;;;;;;;;;;;21.50;46.10;;;;;;691313;28;1009;-81
2022/02/01 02:33:06;;;;;;;;;;;21.50;46.10;;;;;;691232;28;1444;-80
2022/02/01 02:33:27;;;;;;;;;;;21.50;46.00;;;;;;691291;28;834;-82
2022/02/01 02:33:48;;;;;;;;;;;21.50;45.90;;;;;;691347;28;834;-83
2022/02/01 02:34:12;;;;;;;;;;;21.50;46.00;;;;;;691308;28;795;-82
2022/02/01 02:34:32;;;;;;;;;;;21.50;46.00;;;;;;691369;28;862;-82
2022/02/01 02:34:53;;;;;;;;;;;21.50;46.00;;;;;;691236;28;783;-82
2022/02/01 02:35:13;;;;;;;;;;;21.50;45.70;;;;;;691229;28;992;-80
2022/02/01 02:35:38;;;;;;;;;;;21.50;45.90;;;;;;691352;28;842;-82
2022/02/01 02:36:07;;;;;;;;;;;21.50;45.80;;;;;;691182;28;842;-83
2022/02/01 02:36:27;;;;;;;;;;;21.50;45.80;;;;;;691438;28;810;-82
2022/02/01 02:36:54;;;;;;;;;;;21.50;45.70;;;;;;691737;28;819;-80
2022/02/01 02:37:17;;;;;;;;;;;21.50;45.70;;;;;;691761;28;814;-82
2022/02/01 02:37:38;;;;;;;;;;;21.50;45.80;;;;;;691844;28;881;-81
2022/02/01 02:37:58;;;;;;;;;;;21.50;46.00;;;;;;691757;28;768;-81
2022/02/01 02:38:28;;;;;;;;;;;21.50;46.00;;;;;;691732;28;866;-82
2022/02/01 02:38:56;;;;;;;;;;;21.50;45.70;;;;;;691756;28;839;-81
2022/02/01 02:39:50;;;;;;;;;;;21.50;45.80;;;;;;691888;28;640;-80
2022/02/01 02:40:35;;;;;;;;;;;21.50;45.70;;;;;;691810;28;881;-81
2022/02/01 02:41:31;;;;;;;;;;;21.50;46.00;;;;;;691904;28;873;-80
2022/02/01 02:42:14;;;;;;;;;;;21.50;45.80;;;;;;691742;28;850;-81
2022/02/01 02:45:04;;;;;;;;;;;21.50;45.60;;;;;;691808;28;909;-81
2022/02/01 02:45:15;;;;;;;;;;;21.50;45.70;;;;;;693112;28;1550;-82
2022/02/01 02:45:36;;;;;;;;;;;21.40;45.60;;;;;;693344;28;1532;-79
2022/02/01 02:45:56;;;;;;;;;;;21.40;45.50;;;;;;692101;28;1443;-79
2022/02/01 02:46:24;;;;;;;;;;;21.40;45.50;;;;;;692345;28;854;-79
2022/02/01 02:46:45;;;;;;;;;;;21.50;45.50;;;;;;692084;28;1302;-80
2022/02/01 02:47:07;;;;;;;;;;;21.40;45.50;;;;;;692742;28;1375;-80
2022/02/01 02:47:28;;;;;;;;;;;21.40;45.70;;;;;;694942;28;859;-83
2022/02/01 02:47:48;;;;;;;;;;;21.40;45.60;;;;;;694565;28;1428;-79
2022/02/01 02:48:12;;;;;;;;;;;21.40;45.50;;;;;;695579;28;862;-80
2022/02/01 02:48:32;;;;;;;;;;;21.40;45.50;;;;;;695264;28;1337;-80
2022/02/01 02:48:53;;;;;;;;;;;21.40;45.50;;;;;;694737;28;914;-84
2022/02/01 02:49:18;;;;;;;;;;;21.40;45.70;;;;;;695352;28;833;-85
2022/02/01 02:49:38;;;;;;;;;;;21.40;45.60;;;;;;694854;28;826;-83
2022/02/01 02:49:59;;;;;;;;;;;21.40;45.60;;;;;;695204;28;1909;-83
2022/02/01 02:50:22;;;;;;;;;;;21.40;45.50;;;;;;694704;28;1428;-80
2022/02/01 02:50:44;;;;;;;;;;;21.40;45.40;;;;;;694749;28;821;-80
2022/02/01 02:51:04;;;;;;;;;;;21.40;45.40;;;;;;694691;28;856;-78
2022/02/01 02:51:26;;;;;;;;;;;21.40;45.30;;;;;;694217;28;1322;-81
2022/02/01 02:51:47;;;;;;;;;;;21.40;45.30;;;;;;694383;28;845;-81
2022/02/01 02:52:07;;;;;;;;;;;21.40;45.40;;;;;;694618;28;790;-79
2022/02/01 02:52:28;;;;;;;;;;;21.40;45.40;;;;;;692676;28;1365;-81
2022/02/01 02:52:48;;;;;;;;;;;21.40;45.30;;;;;;694109;28;1392;-80
2022/02/01 02:53:09;;;;;;;;;;;21.40;45.50;;;;;;694565;28;842;-80
2022/02/01 02:53:29;;;;;;;;;;;21.40;45.50;;;;;;694621;28;774;-81
2022/02/01 02:53:51;;;;;;;;;;;21.40;45.50;;;;;;694255;28;1472;-81
2022/02/01 02:54:13;;;;;;;;;;;21.40;45.40;;;;;;694546;28;955;-81
2022/02/01 02:54:33;;;;;;;;;;;21.40;45.40;;;;;;694621;28;821;-84
2022/02/01 02:54:55;;;;;;;;;;;21.40;45.40;;;;;;694305;28;913;-83
2022/02/01 02:55:15;;;;;;;;;;;21.40;45.40;;;;;;694445;28;822;-81
2022/02/01 02:55:36;;;;;;;;;;;21.40;45.40;;;;;;694548;28;790;-83
2022/02/01 02:55:56;;;;;;;;;;;21.40;45.40;;;;;;694300;28;1456;-82
2022/02/01 02:56:17;;;;;;;;;;;21.40;45.30;;;;;;694465;28;821;-84
2022/02/01 02:56:41;;;;;;;;;;;21.40;45.40;;;;;;694174;28;869;-84
2022/02/01 02:57:05;;;;;;;;;;;21.40;45.30;;;;;;694191;28;939;-83
2022/02/01 02:57:26;;;;;;;;;;;21.30;45.20;;;;;;694151;28;1313;-83
2022/02/01 02:57:46;;;;;;;;;;;21.40;45.40;;;;;;694100;28;810;-83
2022/02/01 02:58:07;;;;;;;;;;;21.40;45.30;;;;;;694333;28;791;-84
2022/02/01 02:58:27;;;;;;;;;;;21.40;45.40;;;;;;692290;28;925;-84
2022/02/01 02:58:51;;;;;;;;;;;21.40;45.40;;;;;;694175;28;850;-83
2022/02/01 02:59:14;;;;;;;;;;;21.40;45.50;;;;;;694271;28;805;-81
2022/02/01 02:59:35;;;;;;;;;;;21.40;45.40;;;;;;694301;28;838;-84
2022/02/01 02:59:56;;;;;;;;;;;21.40;45.50;;;;;;694106;28;1237;-84
2022/02/01 03:00:16;;;;;;;;;;;21.40;45.40;;;;;;694547;28;1277;-85
2022/02/01 03:00:37;;;;;;;;;;;21.40;45.50;;;;;;694288;28;897;-84
2022/02/01 03:00:58;;;;;;;;;;;21.40;45.30;;;;;;694167;28;831;-83
2022/02/01 03:01:19;;;;;;;;;;;21.40;45.30;;;;;;694305;28;877;-83
2022/02/01 03:01:40;;;;;;;;;;;21.40;45.40;;;;;;693955;28;893;-85
2022/02/01 03:02:02;;;;;;;;;;;21.40;45.30;;;;;;691575;28;881;-85
2022/02/01 03:02:22;;;;;;;;;;;21.10;45.20;;;;;;691693;28;791;-84
2022/02/01 03:02:45;;;;;;;;;;;21.40;45.40;;;;;;691683;28;885;-84
2022/02/01 03:03:05;;;;;;;;;;;21.40;45.20;;;;;;691775;28;814;-83
2022/02/01 03:03:26;;;;;;;;;;;21.40;45.10;;;;;;691643;28;913;-85
2022/02/01 03:03:47;;;;;;;;;;;21.30;45.10;;;;;;691747;28;794;-82
2022/02/01 03:04:07;;;;;;;;;;;21.30;45.10;;;;;;691859;28;779;-83
2022/02/01 03:04:29;;;;;;;;;;;21.30;45.20;;;;;;691718;28;917;-82
2022/02/01 03:04:50;;;;;;;;;;;21.40;45.20;;;;;;691603;28;482;-82
2022/02/01 03:05:11;;;;;;;;;;;21.30;45.20;;;;;;691790;28;803;-83
2022/02/01 03:05:31;;;;;;;;;;;21.30;45.40;;;;;;691822;28;1439;-80
2022/02/01 03:05:52;;;;;;;;;;;21.40;45.60;;;;;;691468;28;1570;-81
2022/02/01 03:06:12;;;;;;;;;;;21.30;45.60;;;;;;691386;28;1761;-82
2022/02/01 03:06:33;;;;;;;;;;;21.30;45.70;;;;;;691632;28;822;-82
2022/02/01 03:06:54;;;;;;;;;;;21.30;45.70;;;;;;691399;28;862;-81
2022/02/01 03:07:15;;;;;;;;;;;21.30;45.80;;;;;;691432;28;1354;-83
2022/02/01 03:07:35;;;;;;;;;;;21.40;45.80;;;;;;691670;28;795;-82
2022/02/01 03:07:56;;;;;;;;;;;21.30;46.00;;;;;;691684;28;897;-82
2022/02/01 03:08:16;;;;;;;;;;;21.40;45.90;;;;;;691671;28;850;-82
2022/02/01 03:08:37;;;;;;;;;;;21.30;45.60;;;;;;691664;28;819;-82
2022/02/01 03:08:58;;;;;;;;;;;21.40;45.80;;;;;;691632;28;826;-82
2022/02/01 03:09:20;;;;;;;;;;;21.30;45.70;;;;;;691714;28;794;-82
2022/02/01 03:09:43;;;;;;;;;;;21.30;45.90;;;;;;691713;28;811;-82
2022/02/01 03:10:03;;;;;;;;;;;21.40;45.70;;;;;;691643;28;1960;-81
2022/02/01 03:10:24;;;;;;;;;;;21.40;45.80;;;;;;691625;28;1052;-82
2022/02/01 03:10:45;;;;;;;;;;;21.30;45.70;;;;;;691615;28;536;-78
2022/02/01 03:11:12;;;;;;;;;;;21.40;45.50;;;;;;691725;28;870;-81
2022/02/01 03:11:32;;;;;;;;;;;21.30;45.30;;;;;;691677;28;1617;-82
2022/02/01 03:11:55;;;;;;;;;;;21.30;45.50;;;;;;691792;28;1078;-81
2022/02/01 03:12:31;;;;;;;;;;;21.40;45.40;;;;;;691715;28;878;-83
2022/02/01 03:13:11;;;;;;;;;;;21.30;45.50;;;;;;691746;28;874;-82
2022/02/01 03:13:34;;;;;;;;;;;21.30;45.40;;;;;;689074;28;1269;-82
2022/02/01 03:13:58;;;;;;;;;;;21.30;45.80;;;;;;688723;28;1031;-83
2022/02/01 03:14:42;;;;;;;;;;;21.30;45.70;;;;;;688788;28;877;-82
2022/02/01 03:15:21;;;;;;;;;;;21.30;45.30;;;;;;688618;28;1311;-82
2022/02/01 03:16:32;;;;;;;;;;;21.30;45.60;;;;;;691489;28;1377;-82
2022/02/01 03:20:07;;;;;;;;;;;21.30;45.50;;;;;;691557;28;604;-81
2022/02/01 03:20:28;;;;;;;;;;;21.40;45.30;;;;;;688167;28;1271;-82
2022/02/01 03:20:48;;;;;;;;;;;21.30;45.40;;;;;;688604;28;854;-82
2022/02/01 03:21:09;;;;;;;;;;;21.30;45.40;;;;;;688712;28;782;-82
2022/02/01 03:21:29;;;;;;;;;;;21.30;45.30;;;;;;688609;28;1019;-82
2022/02/01 03:21:50;;;;;;;;;;;21.30;45.30;;;;;;688653;28;779;-83
2022/02/01 03:22:11;;;;;;;;;;;21.30;45.20;;;;;;688972;28;909;-81
2022/02/01 03:22:31;;;;;;;;;;;21.30;45.10;;;;;;691422;28;971;-79
2022/02/01 03:22:52;;;;;;;;;;;21.30;45.20;;;;;;691303;28;1438;-81
2022/02/01 03:23:12;;;;;;;;;;;21.40;45.40;;;;;;691294;28;884;-80
2022/02/01 03:23:33;;;;;;;;;;;21.30;45.30;;;;;;689160;28;1483;-82
2022/02/01 03:23:53;;;;;;;;;;;21.30;45.50;;;;;;691420;28;837;-82
2022/02/01 03:24:15;;;;;;;;;;;21.30;45.60;;;;;;691385;28;956;-83
2022/02/01 03:24:35;;;;;;;;;;;21.30;45.50;;;;;;691454;28;806;-82
2022/02/01 03:24:58;;;;;;;;;;;21.30;45.30;;;;;;691288;28;1435;-82
2022/02/01 03:25:18;;;;;;;;;;;21.30;45.30;;;;;;691500;28;771;-82
2022/02/01 03:25:39;;;;;;;;;;;21.30;45.40;;;;;;691471;28;952;-82
2022/02/01 03:25:59;;;;;;;;;;;21.30;45.50;;;;;;688512;28;870;-82
2022/02/01 03:26:20;;;;;;;;;;;21.30;45.70;;;;;;688663;28;823;-81
2022/02/01 03:26:40;;;;;;;;;;;21.30;45.70;;;;;;688840;28;898;-82
2022/02/01 03:27:01;;;;;;;;;;;21.30;45.80;;;;;;688723;28;873;-82
2022/02/01 03:27:22;;;;;;;;;;;21.30;45.80;;;;;;688466;28;1409;-81
2022/02/01 03:27:42;;;;;;;;;;;21.30;45.60;;;;;;688881;28;846;-82
2022/02/01 03:28:03;;;;;;;;;;;21.30;45.60;;;;;;691449;28;894;-82
2022/02/01 03:28:23;;;;;;;;;;;21.40;45.70;;;;;;688472;28;1507;-82
2022/02/01 03:28:44;;;;;;;;;;;21.30;45.80;;;;;;688693;28;963;-82
2022/02/01 03:29:04;;;;;;;;;;;21.40;45.90;;;;;;688744;28;826;-81
2022/02/01 03:29:25;;;;;;;;;;;21.40;45.80;;;;;;688586;28;834;-82